Current | Forecast
Updated: 4:00 PM CEST on July 22, 2017
Observed at Badajoz, Spain
Temperature 31°C
Humidity 24%
Dew Point 8°C
Wind West at 4 km/h
Pressure 1015 hPa (Steady)
Conditions Clear
Visibility -
UV N/A
Clouds
Yesterday's Maximum 31°C
Yesterday's Minimum 13°C approx.
Yesterday's Cooling Degree Days 7 approx.
Sunrise7:14 AM CEST
Sunset9:44 PM CEST
Moon Rise6:09 AM CEST
Moon Set8:55 PM CEST
Moon PhaseMoon Phase
Waning Crescent
Raw METARMETAR LEBZ 221400Z 28002KT CAVOK 31/08 Q1015


Monday
. High: 71° F.
Tuesday
. High: 78° F.
Wednesday
. High: 64° F.
Thursday
. High: 71° F.
Friday
. High: 82° F.
Saturday
. High: 80° F.
Sunday
. High: 82° F.
Monday
. High: 93° F.

Units: English | Metric

Find the Weather for any City, State or Zipcode, or Country:

U.S. State List | Severe Weather | Tropical Storms | Ski Conditions
United States | Canada | Central America | South America | Asia | Europe | Australia | Africa | Islands

Weather Underground

© Copyright 2017
The Weather Company, LLC